Time;durP1;ratioP1;P1;durP2;ratioP2;P2;SDS_P1;SDS_P2;PMS_P1;PMS_P2;Temp;Humidity;BMP_temperature;BMP_pressure;BME280_temperature;BME280_humidity;BME280_pressure;Samples;Min_cycle;Max_cycle;Signal;HPM_P1;HPM_P2
2023/11/27 00:02:22;;;;;;;31.83;16.02;;;0.90;99.90;;;;;;5002678;28;20096;-73
2023/11/27 00:04:49;;;;;;;35.63;16.33;;;0.90;99.90;;;;;;5003310;28;20109;-73
2023/11/27 00:07:14;;;;;;;40.03;16.17;;;0.90;99.90;;;;;;5006733;28;20034;-72
2023/11/27 00:09:40;;;;;;;37.97;17.52;;;1.00;99.90;;;;;;4993935;28;20034;-73
2023/11/27 00:12:07;;;;;;;41.30;18.83;;;0.90;99.90;;;;;;5003298;28;20041;-73
2023/11/27 00:14:33;;;;;;;42.95;17.92;;;1.00;99.90;;;;;;5000581;28;20395;-73
2023/11/27 00:16:59;;;;;;;41.28;19.33;;;1.00;99.90;;;;;;4999990;28;20034;-73
2023/11/27 00:19:25;;;;;;;46.97;18.67;;;1.00;99.90;;;;;;4996686;28;20511;-73
2023/11/27 00:21:51;;;;;;;33.40;16.15;;;1.20;99.90;;;;;;5003913;28;20037;-73
2023/11/27 00:24:17;;;;;;;35.45;17.73;;;1.10;99.90;;;;;;5002349;28;20606;-73
2023/11/27 00:26:43;;;;;;;39.17;18.35;;;1.10;99.90;;;;;;5001119;28;20109;-73
2023/11/27 00:29:09;;;;;;;45.53;17.53;;;1.00;99.90;;;;;;5000639;28;20113;-75
2023/11/27 00:31:34;;;;;;;43.30;17.85;;;1.00;99.90;;;;;;5002390;28;20026;-73
2023/11/27 00:34:00;;;;;;;31.55;15.73;;;1.00;99.90;;;;;;5003298;28;20034;-73
2023/11/27 00:36:26;;;;;;;33.35;16.80;;;1.00;99.90;;;;;;5001815;28;20578;-74
2023/11/27 00:38:51;;;;;;;37.00;17.23;;;1.00;99.90;;;;;;5010512;28;20461;-73
2023/11/27 00:41:17;;;;;;;37.75;16.33;;;1.10;99.90;;;;;;4999661;28;20293;-73
2023/11/27 00:43:45;;;;;;;38.72;15.40;;;1.10;99.90;;;;;;5003929;28;20088;-73
2023/11/27 00:46:12;;;;;;;35.78;16.13;;;1.10;99.90;;;;;;5007372;28;20443;-74
2023/11/27 00:48:38;;;;;;;42.67;17.50;;;1.10;99.90;;;;;;5006579;28;20057;-73
2023/11/27 00:51:04;;;;;;;36.25;17.05;;;1.10;99.90;;;;;;5002460;28;20499;-73
2023/11/27 00:53:30;;;;;;;39.70;16.40;;;1.20;99.90;;;;;;4994014;28;20057;-73
2023/11/27 00:55:56;;;;;;;41.78;17.98;;;1.20;99.90;;;;;;5002079;28;20073;-73
2023/11/27 00:58:21;;;;;;;36.63;17.47;;;1.30;99.90;;;;;;5003203;28;20030;-73
2023/11/27 01:00:47;;;;;;;46.08;18.45;;;1.20;99.90;;;;;;5000637;28;20092;-73
2023/11/27 01:03:13;;;;;;;49.47;19.58;;;1.10;99.90;;;;;;5002707;28;20083;-73
2023/11/27 01:05:39;;;;;;;39.95;19.00;;;1.00;99.90;;;;;;5000161;28;20542;-73
2023/11/27 01:08:04;;;;;;;33.92;17.83;;;1.00;99.90;;;;;;5001911;28;20087;-73
2023/11/27 01:10:31;;;;;;;44.38;18.45;;;1.00;99.90;;;;;;4998604;28;20058;-73
2023/11/27 01:12:57;;;;;;;;;;;1.00;99.90;;;;;;5008712;28;20030;-73
2023/11/27 01:15:23;;;;;;;37.22;18.23;;;1.00;99.90;;;;;;5002969;28;20268;-73
2023/11/27 01:17:48;;;;;;;33.75;15.95;;;1.00;99.90;;;;;;5002962;28;20511;-73
2023/11/27 01:20:14;;;;;;;45.63;18.35;;;1.00;99.90;;;;;;5001889;28;20857;-73
2023/11/27 01:22:40;;;;;;;50.40;19.83;;;1.00;99.90;;;;;;5002845;28;20104;-73
2023/11/27 01:25:06;;;;;;;46.40;17.15;;;1.00;99.90;;;;;;4999736;28;20037;-74
2023/11/27 01:27:33;;;;;;;34.17;17.63;;;0.90;99.90;;;;;;5000116;28;20407;-73
2023/11/27 01:29:59;;;;;;;36.13;17.70;;;1.00;99.90;;;;;;5000267;28;20117;-73
2023/11/27 01:32:25;;;;;;;40.90;19.05;;;1.00;99.90;;;;;;4997595;28;20100;-73
2023/11/27 01:34:53;;;;;;;36.08;17.63;;;1.10;99.90;;;;;;5002365;28;20072;-73
2023/11/27 01:37:19;;;;;;;43.17;18.25;;;1.10;99.90;;;;;;5002562;28;20065;-73
2023/11/27 01:39:45;;;;;;;39.78;16.25;;;1.20;99.90;;;;;;5008341;28;20104;-73
2023/11/27 01:42:11;;;;;;;46.15;17.90;;;1.10;99.90;;;;;;5006871;28;20465;-73
2023/11/27 01:44:37;;;;;;;42.22;17.60;;;1.20;99.90;;;;;;5002363;28;20033;-73
2023/11/27 01:47:04;;;;;;;39.50;18.27;;;1.20;99.90;;;;;;5008633;28;20112;-73
2023/11/27 01:49:30;;;;;;;;;;;1.10;99.90;;;;;;5000607;28;20647;-73
2023/11/27 01:51:57;;;;;;;34.90;16.42;;;1.10;99.90;;;;;;5001085;28;20430;-74
2023/11/27 01:54:23;;;;;;;38.70;18.20;;;1.10;99.90;;;;;;4995228;28;20037;-73
2023/11/27 01:56:50;;;;;;;34.13;15.70;;;1.20;99.90;;;;;;5001611;28;20046;-73
2023/11/27 01:59:17;;;;;;;32.92;16.27;;;1.20;99.90;;;;;;5000974;28;20073;-73
2023/11/27 02:01:43;;;;;;;41.53;16.83;;;1.20;99.90;;;;;;5010055;28;20034;-73
2023/11/27 02:04:11;;;;;;;38.00;17.40;;;1.20;99.90;;;;;;4993513;28;20025;-73
2023/11/27 02:06:36;;;;;;;36.63;16.48;;;1.20;99.90;;;;;;5004578;28;20350;-73
2023/11/27 02:09:02;;;;;;;39.17;18.00;;;1.20;99.90;;;;;;5005045;28;20041;-73
2023/11/27 02:11:28;;;;;;;32.05;16.23;;;1.20;99.90;;;;;;4997810;28;20273;-72
2023/11/27 02:13:53;;;;;;;31.70;16.63;;;1.10;99.90;;;;;;5000510;28;20040;-73
2023/11/27 02:16:21;;;;;;;37.28;17.00;;;1.20;99.90;;;;;;4993731;28;20026;-73
2023/11/27 02:18:47;;;;;;;32.78;16.83;;;1.30;99.90;;;;;;5001438;28;20810;-73
2023/11/27 02:21:12;;;;;;;30.50;16.00;;;1.30;99.90;;;;;;5001646;28;20038;-73
2023/11/27 02:23:38;;;;;;;34.70;17.23;;;1.30;99.90;;;;;;4993499;28;20036;-73
2023/11/27 02:26:04;;;;;;;35.08;17.33;;;1.40;99.90;;;;;;5001004;28;20519;-73
2023/11/27 02:28:30;;;;;;;28.75;17.00;;;1.40;99.90;;;;;;5001287;28;20092;-73
2023/11/27 02:30:56;;;;;;;35.73;18.10;;;1.40;99.90;;;;;;5001812;28;20057;-73
2023/11/27 02:33:25;;;;;;;39.00;17.45;;;1.40;99.90;;;;;;5001861;28;20299;-73
2023/11/27 02:35:51;;;;;;;36.10;18.40;;;1.40;99.90;;;;;;4997831;28;20118;-73
2023/11/27 02:38:17;;;;;;;35.60;17.52;;;1.40;99.90;;;;;;5004663;28;20133;-73
2023/11/27 02:40:43;;;;;;;32.10;17.23;;;1.40;99.90;;;;;;4999042;28;20184;-73
2023/11/27 02:43:09;;;;;;;36.25;17.38;;;1.50;99.90;;;;;;5002321;28;20053;-73
2023/11/27 02:45:35;;;;;;;43.58;17.33;;;1.40;99.90;;;;;;5000927;28;20034;-73
2023/11/27 02:48:01;;;;;;;32.92;16.65;;;1.40;99.90;;;;;;4999454;28;20028;-73
2023/11/27 02:50:27;;;;;;;46.00;17.75;;;1.40;99.90;;;;;;4998682;28;20061;-73
2023/11/27 02:52:53;;;;;;;33.92;16.55;;;1.40;99.90;;;;;;5002406;28;20487;-73
2023/11/27 02:55:19;;;;;;;46.38;18.33;;;1.40;99.90;;;;;;5005075;28;20069;-73
2023/11/27 02:57:46;;;;;;;36.10;18.35;;;1.30;99.90;;;;;;5005677;28;20038;-73
2023/11/27 03:00:12;;;;;;;30.63;15.98;;;1.20;99.90;;;;;;5005231;28;20751;-73
2023/11/27 03:02:42;;;;;;;30.08;16.60;;;1.30;99.90;;;;;;5003935;28;20030;-73
2023/11/27 03:05:08;;;;;;;35.67;18.35;;;1.30;99.90;;;;;;5003508;28;20037;-74
2023/11/27 03:07:37;;;;;;;30.15;16.40;;;1.30;99.90;;;;;;4997225;28;20030;-73
2023/11/27 03:10:04;;;;;;;37.13;16.35;;;1.40;99.90;;;;;;5005421;28;20034;-74
2023/11/27 03:12:29;;;;;;;32.45;17.25;;;1.40;99.90;;;;;;5003822;28;20419;-74
2023/11/27 03:14:55;;;;;;;42.08;17.55;;;1.40;99.90;;;;;;5006000;28;20044;-73
2023/11/27 03:17:22;;;;;;;32.17;16.42;;;1.40;99.90;;;;;;5003297;28;20086;-73
2023/11/27 03:19:47;;;;;;;;;;;1.40;99.90;;;;;;5003732;28;20080;-73
2023/11/27 03:22:13;;;;;;;34.90;16.23;;;1.40;99.90;;;;;;5003968;28;19909;-74
2023/11/27 03:24:39;;;;;;;38.10;18.55;;;1.20;99.90;;;;;;5009502;28;20021;-73
2023/11/27 03:27:05;;;;;;;40.63;18.02;;;1.10;99.90;;;;;;5010865;28;20504;-73
2023/11/27 03:29:31;;;;;;;32.15;16.77;;;1.10;99.90;;;;;;5010579;28;20069;-73
2023/11/27 03:31:57;;;;;;;36.20;16.77;;;1.10;99.90;;;;;;5002275;28;20030;-73
2023/11/27 03:34:23;;;;;;;36.42;17.38;;;1.20;99.90;;;;;;5004557;28;20014;-73
2023/11/27 03:36:48;;;;;;;35.80;15.87;;;1.20;99.90;;;;;;5001154;28;20034;-74
2023/11/27 03:39:14;;;;;;;34.07;16.93;;;1.10;99.90;;;;;;5004421;28;20343;-73
2023/11/27 03:41:40;;;;;;;38.50;17.67;;;1.10;99.90;;;;;;5002995;28;20285;-72
2023/11/27 03:44:08;;;;;;;39.80;17.60;;;1.10;99.90;;;;;;5005713;28;20078;-73
2023/11/27 03:46:37;;;;;;;42.22;17.80;;;1.20;99.90;;;;;;5009027;28;20420;-73
2023/11/27 03:49:02;;;;;;;32.45;16.75;;;1.20;99.90;;;;;;5010038;28;20080;-73
2023/11/27 03:51:28;;;;;;;32.90;17.58;;;1.10;99.90;;;;;;5002983;28;20499;-73
2023/11/27 03:53:55;;;;;;;36.42;16.23;;;1.10;99.90;;;;;;5002830;28;20092;-73
2023/11/27 03:56:20;;;;;;;;;;;1.10;99.90;;;;;;5003890;28;20022;-73
2023/11/27 03:58:47;;;;;;;47.20;18.25;;;1.20;99.90;;;;;;5002866;28;20390;-73
2023/11/27 04:01:13;;;;;;;;;;;1.20;99.90;;;;;;5004205;28;20022;-73
2023/11/27 04:03:42;;;;;;;38.97;17.27;;;1.20;99.90;;;;;;5003335;28;19996;-73
2023/11/27 04:06:09;;;;;;;34.60;17.42;;;1.20;99.90;;;;;;5003431;28;20442;-73
2023/11/27 04:08:38;;;;;;;34.65;18.02;;;1.20;99.90;;;;;;4996065;28;20030;-73
2023/11/27 04:11:09;;;;;;;44.55;17.48;;;1.20;99.90;;;;;;5004305;28;20021;-73
2023/11/27 04:13:35;;;;;;;39.13;16.85;;;1.20;99.90;;;;;;5004318;28;20041;-73
2023/11/27 04:16:01;;;;;;;34.95;18.38;;;1.30;99.90;;;;;;5001728;28;20027;-73
2023/11/27 04:18:26;;;;;;;35.40;17.30;;;1.30;99.90;;;;;;5004004;28;20725;-73
2023/11/27 04:20:52;;;;;;;45.30;19.08;;;1.30;99.90;;;;;;5002337;28;20281;-73
2023/11/27 04:23:17;;;;;;;32.80;18.33;;;1.30;99.90;;;;;;5000869;28;20089;-73
2023/11/27 04:25:43;;;;;;;31.58;17.10;;;1.30;99.90;;;;;;5002024;28;20281;-74
2023/11/27 04:28:09;;;;;;;35.25;17.40;;;1.40;99.90;;;;;;5005661;28;20034;-73
2023/11/27 04:30:34;;;;;;;38.67;17.53;;;1.40;99.90;;;;;;5004716;28;20029;-73
2023/11/27 04:33:00;;;;;;;34.93;17.90;;;1.40;99.90;;;;;;5004228;28;20318;-73
2023/11/27 04:35:25;;;;;;;40.03;19.13;;;1.50;99.90;;;;;;5003826;28;20414;-73
2023/11/27 04:37:51;;;;;;;39.38;18.90;;;1.50;99.90;;;;;;5009359;28;20301;-73
2023/11/27 04:40:17;;;;;;;42.55;21.38;;;1.40;99.90;;;;;;5003446;28;20089;-73
2023/11/27 04:42:42;;;;;;;42.25;20.15;;;1.40;99.90;;;;;;4995362;28;20029;-73
2023/11/27 04:45:08;;;;;;;50.47;25.95;;;1.40;99.90;;;;;;5003128;28;20040;-73
2023/11/27 04:47:35;;;;;;;54.00;23.33;;;1.40;99.90;;;;;;5010024;28;20065;-73
2023/11/27 04:50:01;;;;;;;46.83;22.58;;;1.50;99.90;;;;;;5003376;28;20038;-73
2023/11/27 04:52:27;;;;;;;41.80;21.58;;;1.40;99.90;;;;;;5000134;28;20022;-73
2023/11/27 04:54:53;;;;;;;49.35;21.98;;;1.50;99.90;;;;;;5007246;28;20035;-73
2023/11/27 04:57:21;;;;;;;41.72;20.95;;;1.50;99.90;;;;;;5004383;28;20045;-72
2023/11/27 04:59:47;;;;;;;41.35;19.35;;;1.50;99.90;;;;;;5007002;28;20030;-72
2023/11/27 05:02:15;;;;;;;35.08;17.17;;;1.50;99.90;;;;;;5002634;28;20038;-73
2023/11/27 05:04:41;;;;;;;36.33;19.85;;;1.40;99.90;;;;;;5000972;28;20041;-72
2023/11/27 05:07:06;;;;;;;36.42;18.73;;;1.50;99.90;;;;;;5003587;28;20029;-73
2023/11/27 05:09:33;;;;;;;38.70;18.33;;;1.50;99.90;;;;;;5001174;28;20161;-73
2023/11/27 05:11:58;;;;;;;;;;;1.40;99.90;;;;;;5010541;28;20026;-74
2023/11/27 05:14:24;;;;;;;34.65;18.27;;;1.50;99.90;;;;;;5001123;28;19910;-73
2023/11/27 05:16:49;;;;;;;33.83;19.50;;;1.50;99.90;;;;;;5002846;28;20033;-73
2023/11/27 05:19:15;;;;;;;53.67;23.17;;;1.50;99.90;;;;;;5009520;28;20038;-73
2023/11/27 05:21:41;;;;;;;50.83;21.85;;;1.50;99.90;;;;;;4999773;28;20041;-73
2023/11/27 05:24:07;;;;;;;;;;;1.60;99.90;;;;;;5003444;28;20026;-73
2023/11/27 05:26:33;;;;;;;47.45;20.52;;;1.60;99.90;;;;;;5006789;28;20000;-73
2023/11/27 05:28:58;;;;;;;44.55;19.42;;;1.60;99.90;;;;;;4998020;28;20026;-72
2023/11/27 05:31:24;;;;;;;43.20;19.80;;;1.50;99.90;;;;;;5008951;28;20424;-73
2023/11/27 05:33:50;;;;;;;40.78;19.58;;;1.50;99.90;;;;;;5001296;28;20026;-73
2023/11/27 05:36:16;;;;;;;33.60;19.17;;;1.50;99.90;;;;;;5015414;28;20070;-74
2023/11/27 05:38:42;;;;;;;38.33;19.55;;;1.50;99.90;;;;;;4998141;28;20030;-73
2023/11/27 05:41:11;;;;;;;42.33;20.35;;;1.50;99.90;;;;;;5002519;28;20049;-73
2023/11/27 05:43:37;;;;;;;36.67;20.50;;;1.60;99.90;;;;;;5005121;28;20499;-73
2023/11/27 05:46:04;;;;;;;45.45;18.50;;;1.50;99.90;;;;;;5000670;28;20109;-73
2023/11/27 05:48:29;;;;;;;35.17;16.52;;;1.60;99.90;;;;;;5010491;28;20095;-73
2023/11/27 05:50:56;;;;;;;33.40;17.27;;;1.60;99.90;;;;;;5004891;28;20570;-72
2023/11/27 05:53:22;;;;;;;38.53;17.80;;;1.60;99.90;;;;;;5002649;28;20053;-72
2023/11/27 05:55:48;;;;;;;35.22;16.65;;;1.60;99.90;;;;;;5001132;28;20038;-72
2023/11/27 05:58:14;;;;;;;38.03;17.65;;;1.60;99.90;;;;;;5000163;28;20034;-72
2023/11/27 06:00:40;;;;;;;40.90;17.33;;;1.70;99.90;;;;;;5005545;28;20052;-72
2023/11/27 06:03:07;;;;;;;45.95;17.98;;;1.70;99.90;;;;;;5008269;28;20034;-72
2023/11/27 06:05:34;;;;;;;33.65;17.13;;;1.80;99.90;;;;;;4999114;28;20072;-72
2023/11/27 06:08:00;;;;;;;33.08;17.58;;;1.80;99.90;;;;;;5007867;28;20164;-72
2023/11/27 06:10:26;;;;;;;33.75;16.42;;;1.80;99.90;;;;;;5008805;28;20122;-73
2023/11/27 06:12:52;;;;;;;36.15;16.80;;;1.90;99.90;;;;;;5005169;28;20038;-72
2023/11/27 06:15:18;;;;;;;43.45;17.85;;;1.90;99.90;;;;;;5001753;28;20026;-72
2023/11/27 06:17:44;;;;;;;32.47;16.52;;;1.90;99.90;;;;;;4995775;28;20057;-71
2023/11/27 06:20:17;;;;;;;48.15;21.02;;;1.90;99.90;;;;;;5004091;28;20450;-72
2023/11/27 06:22:43;;;;;;;47.20;23.15;;;1.90;99.90;;;;;;5000296;28;20042;-72
2023/11/27 06:25:09;;;;;;;48.15;25.17;;;1.80;99.90;;;;;;5000399;28;20491;-72
2023/11/27 06:27:35;;;;;;;50.17;25.02;;;1.80;99.90;;;;;;4998755;28;20038;-72
2023/11/27 06:30:02;;;;;;;50.35;23.92;;;1.90;99.90;;;;;;4997624;28;20046;-72
2023/11/27 06:32:29;;;;;;;55.35;25.00;;;1.80;99.90;;;;;;5021114;28;20513;-72
2023/11/27 06:34:55;;;;;;;45.65;23.30;;;1.80;99.90;;;;;;5007488;28;20149;-72
2023/11/27 06:37:21;;;;;;;48.95;25.08;;;1.90;99.90;;;;;;5009876;28;20042;-71
2023/11/27 06:39:47;;;;;;;46.78;25.63;;;1.80;99.90;;;;;;5015173;28;20057;-71
2023/11/27 06:42:13;;;;;;;44.63;23.48;;;1.80;99.90;;;;;;5005787;28;20036;-70
2023/11/27 06:44:41;;;;;;;47.70;24.23;;;1.80;99.90;;;;;;5012567;28;20033;-70
2023/11/27 06:47:07;;;;;;;47.38;23.92;;;1.80;99.90;;;;;;5019358;28;20029;-70
2023/11/27 06:49:33;;;;;;;49.97;25.00;;;1.80;99.90;;;;;;5008968;28;20096;-69
2023/11/27 06:52:00;;;;;;;50.40;23.55;;;1.80;99.90;;;;;;5011757;28;20492;-69
2023/11/27 06:54:26;;;;;;;48.15;23.40;;;1.80;99.90;;;;;;5004467;28;20124;-68
2023/11/27 06:56:54;;;;;;;46.03;24.30;;;1.80;99.90;;;;;;5008427;28;20157;-69
2023/11/27 06:59:21;;;;;;;41.97;19.83;;;1.80;99.90;;;;;;5012123;28;20292;-68
2023/11/27 07:01:46;;;;;;;37.13;18.85;;;1.80;99.90;;;;;;5011469;28;20368;-68
2023/11/27 07:04:12;;;;;;;42.50;19.90;;;1.80;99.90;;;;;;5011886;28;20052;-68
2023/11/27 07:06:38;;;;;;;36.83;17.25;;;1.80;99.90;;;;;;5011849;28;20018;-71
2023/11/27 07:09:05;;;;;;;40.75;16.67;;;1.90;99.90;;;;;;5008927;28;20030;-72
2023/11/27 07:11:34;;;;;;;40.63;16.70;;;1.90;99.90;;;;;;5010593;28;20026;-68
2023/11/27 07:14:01;;;;;;;35.97;16.17;;;1.90;99.90;;;;;;5005617;28;20555;-68
2023/11/27 07:16:28;;;;;;;36.08;16.33;;;1.90;99.90;;;;;;5006584;28;20030;-70
2023/11/27 07:18:55;;;;;;;35.53;15.02;;;2.00;99.90;;;;;;5003802;28;20026;-71
2023/11/27 07:21:20;;;;;;;37.50;15.85;;;2.00;99.90;;;;;;5004810;28;20034;-70
2023/11/27 07:23:46;;;;;;;25.30;14.10;;;2.10;99.90;;;;;;5010916;28;20052;-70
2023/11/27 07:26:11;;;;;;;35.08;15.90;;;2.20;99.90;;;;;;5011366;28;20769;-70
2023/11/27 07:28:40;;;;;;;45.45;16.27;;;2.30;99.90;;;;;;5011129;28;20558;-70
2023/11/27 07:31:07;;;;;;;29.88;13.75;;;2.30;99.90;;;;;;5009429;28;20029;-71
2023/11/27 07:33:33;;;;;;;32.83;15.15;;;2.30;99.90;;;;;;5014383;28;20026;-70
2023/11/27 07:35:59;;;;;;;35.78;15.05;;;2.30;99.90;;;;;;5007208;28;20061;-70
2023/11/27 07:38:25;;;;;;;37.13;13.82;;;2.30;99.90;;;;;;5003660;28;20041;-70
2023/11/27 07:40:52;;;;;;;36.72;16.52;;;2.40;99.90;;;;;;5008737;28;20108;-70
2023/11/27 07:43:18;;;;;;;43.65;16.73;;;2.40;99.90;;;;;;5005086;28;20128;-70
2023/11/27 07:45:45;;;;;;;;;;;2.50;99.90;;;;;;5011776;28;20026;-71
2023/11/27 07:48:11;;;;;;;31.42;14.90;;;2.60;99.90;;;;;;5011167;28;20008;-69
2023/11/27 07:50:37;;;;;;;34.55;14.25;;;2.80;99.90;;;;;;5007808;28;20025;-70
2023/11/27 07:53:03;;;;;;;28.65;13.32;;;2.90;99.90;;;;;;5003370;28;20080;-69
2023/11/27 07:55:29;;;;;;;30.02;14.40;;;3.00;99.90;;;;;;5004449;28;20065;-69
2023/11/27 07:57:54;;;;;;;28.55;14.65;;;3.00;99.90;;;;;;5010207;28;20045;-69
2023/11/27 08:00:20;;;;;;;36.78;15.05;;;3.30;99.90;;;;;;5010100;28;20041;-70
2023/11/27 08:02:47;;;;;;;30.08;14.85;;;3.50;99.90;;;;;;5029171;23;20050;-72
2023/11/27 08:05:15;;;;;;;43.85;16.08;;;3.80;99.90;;;;;;4980033;28;20533;-77
2023/11/27 08:07:40;;;;;;;32.88;15.32;;;4.30;99.90;;;;;;4979005;28;20411;-77
2023/11/27 08:10:08;;;;;;;32.00;14.40;;;3.70;99.90;;;;;;4981188;28;20056;-76
2023/11/27 08:12:36;;;;;;;28.25;13.95;;;3.60;99.90;;;;;;4980720;28;20050;-77
2023/11/27 08:15:05;;;;;;;31.73;14.77;;;3.80;99.90;;;;;;4981608;28;20030;-73
2023/11/27 08:17:31;;;;;;;31.52;14.57;;;4.00;99.90;;;;;;4984310;28;20137;-76
2023/11/27 08:19:57;;;;;;;41.00;16.00;;;4.30;99.90;;;;;;4984258;28;20087;-77
2023/11/27 08:22:23;;;;;;;28.80;14.00;;;4.00;99.90;;;;;;4988780;28;20046;-77
2023/11/27 08:24:49;;;;;;;27.87;12.27;;;4.10;99.90;;;;;;4982884;28;20018;-74
2023/11/27 08:27:14;;;;;;;27.23;12.68;;;4.00;99.90;;;;;;4987479;28;20030;-74
2023/11/27 08:29:40;;;;;;;29.63;13.05;;;3.90;99.90;;;;;;4986120;28;20449;-74
2023/11/27 08:32:06;;;;;;;39.15;17.15;;;3.90;99.90;;;;;;4986430;28;20026;-75
2023/11/27 08:34:33;;;;;;;45.17;20.48;;;3.90;99.90;;;;;;4985999;28;20029;-76
2023/11/27 08:37:01;;;;;;;42.25;21.23;;;3.90;99.90;;;;;;4986472;28;20125;-77
2023/11/27 08:39:27;;;;;;;46.65;21.52;;;4.00;99.90;;;;;;4985969;28;20420;-74
2023/11/27 08:41:52;;;;;;;46.70;20.30;;;4.10;99.90;;;;;;4988378;28;20022;-75
2023/11/27 08:44:18;;;;;;;41.17;18.90;;;4.20;99.90;;;;;;4986392;28;20096;-72
2023/11/27 08:46:46;;;;;;;44.42;20.60;;;4.20;99.90;;;;;;4985936;28;20027;-76
2023/11/27 08:49:12;;;;;;;35.22;18.20;;;4.20;99.90;;;;;;4987387;28;20037;-73
2023/11/27 08:51:42;;;;;;;42.25;19.13;;;4.10;99.90;;;;;;4983047;28;20212;-77
2023/11/27 08:54:08;;;;;;;38.28;17.65;;;4.20;99.90;;;;;;4983371;28;20108;-73
2023/11/27 08:56:34;;;;;;;33.38;17.63;;;4.20;99.90;;;;;;4983820;28;20140;-70
2023/11/27 08:59:01;;;;;;;40.22;17.95;;;4.10;99.90;;;;;;4987309;28;20502;-76
2023/11/27 09:01:27;;;;;;;40.42;18.50;;;4.10;99.90;;;;;;4980709;28;20023;-75
2023/11/27 09:03:52;;;;;;;44.70;18.40;;;4.20;99.90;;;;;;4981909;28;20048;-74
2023/11/27 09:06:19;;;;;;;34.57;18.50;;;4.20;99.90;;;;;;4995834;28;20034;-76
2023/11/27 09:08:45;;;;;;;41.28;20.73;;;4.20;99.90;;;;;;4982395;28;20045;-73
2023/11/27 09:11:11;;;;;;;35.72;17.88;;;4.30;99.90;;;;;;4982271;28;20121;-73
2023/11/27 09:13:37;;;;;;;36.90;19.52;;;4.30;99.90;;;;;;4982226;28;20788;-75
2023/11/27 09:16:03;;;;;;;34.78;18.40;;;4.40;99.90;;;;;;4983791;28;20041;-77
2023/11/27 09:18:30;;;;;;;45.60;19.17;;;4.30;99.90;;;;;;4985881;28;20117;-75
2023/11/27 09:20:55;;;;;;;41.00;18.27;;;4.30;99.90;;;;;;4984951;28;20030;-75
2023/11/27 09:23:21;;;;;;;32.30;17.93;;;4.30;99.90;;;;;;4981502;28;20030;-71
2023/11/27 09:25:46;;;;;;;40.90;19.40;;;4.20;99.90;;;;;;4985861;28;20545;-72
2023/11/27 09:28:12;;;;;;;39.03;18.23;;;4.20;99.90;;;;;;4982933;28;20061;-70
2023/11/27 09:30:38;;;;;;;41.83;20.47;;;4.20;99.90;;;;;;4985394;28;20031;-72
2023/11/27 09:33:04;;;;;;;37.03;16.93;;;4.30;99.90;;;;;;4977928;28;20406;-77
2023/11/27 09:35:30;;;;;;;28.15;15.07;;;4.30;99.90;;;;;;4983336;28;20104;-73
2023/11/27 09:37:55;;;;;;;30.67;14.47;;;4.20;99.90;;;;;;4984200;28;20101;-71
2023/11/27 09:40:21;;;;;;;33.30;14.23;;;4.20;99.90;;;;;;4981166;28;20864;-71
2023/11/27 09:42:48;;;;;;;31.00;13.68;;;4.30;99.90;;;;;;4973416;28;20294;-72
2023/11/27 09:45:16;;;;;;;28.58;13.55;;;4.30;99.90;;;;;;4986544;28;20408;-75
2023/11/27 09:47:44;;;;;;;28.20;13.18;;;4.30;99.90;;;;;;4980803;28;20045;-68
2023/11/27 09:50:15;;;;;;;32.90;15.98;;;4.30;99.90;;;;;;4980462;28;20034;-70
2023/11/27 09:52:52;;;;;;;37.10;15.20;;;4.30;99.90;;;;;;4978913;28;20133;-76
2023/11/27 09:55:20;;;;;;;37.85;16.40;;;4.40;99.90;;;;;;4982351;28;20046;-77
2023/11/27 09:57:47;;;;;;;36.47;15.40;;;4.50;99.90;;;;;;4977375;28;20422;-70
2023/11/27 10:00:14;;;;;;;34.38;13.77;;;4.40;99.90;;;;;;4977359;28;20038;-72
2023/11/27 10:02:40;;;;;;;26.08;14.82;;;4.50;99.90;;;;;;4982073;28;20027;-75
2023/11/27 10:05:08;;;;;;;36.65;14.57;;;4.50;99.90;;;;;;4977058;28;20058;-78
2023/11/27 10:07:37;;;;;;;30.05;15.75;;;4.60;99.90;;;;;;4974197;28;20027;-78
2023/11/27 10:10:07;;;;;;;31.63;13.80;;;4.70;99.90;;;;;;4979043;28;20069;-72
2023/11/27 10:12:35;;;;;;;29.50;14.68;;;4.80;99.90;;;;;;4981338;28;20109;-72
2023/11/27 10:15:02;;;;;;;34.20;14.10;;;4.90;99.90;;;;;;4981463;28;20862;-74
2023/11/27 10:17:29;;;;;;;41.92;21.08;;;4.90;99.90;;;;;;4976761;28;20038;-79
2023/11/27 10:19:58;;;;;;;45.47;22.63;;;4.90;99.90;;;;;;4977482;28;20414;-70
2023/11/27 10:22:29;;;;;;;52.63;22.85;;;5.00;99.90;;;;;;4980965;28;20562;-74
2023/11/27 10:24:58;;;;;;;45.13;22.58;;;4.90;99.90;;;;;;4986115;28;20034;-76
2023/11/27 10:27:25;;;;;;;49.78;22.23;;;4.80;99.90;;;;;;4985076;28;20073;-70
2023/11/27 10:29:50;;;;;;;44.05;22.50;;;4.90;99.90;;;;;;4982228;28;20547;-69
2023/11/27 10:32:17;;;;;;;50.00;21.10;;;4.90;99.90;;;;;;4979723;28;20022;-75
2023/11/27 10:34:43;;;;;;;49.15;21.63;;;4.90;99.90;;;;;;4984774;28;20035;-71
2023/11/27 10:37:08;;;;;;;42.13;18.75;;;4.90;99.90;;;;;;4977090;28;20058;-76
2023/11/27 10:39:34;;;;;;;38.50;20.60;;;4.90;99.90;;;;;;4982201;28;20053;-72
2023/11/27 10:42:04;;;;;;;43.03;21.58;;;5.00;99.90;;;;;;4975327;28;20510;-72
2023/11/27 10:44:37;;;;;;;50.00;20.20;;;4.90;99.90;;;;;;4981311;28;20025;-72
2023/11/27 10:47:10;;;;;;;50.45;22.77;;;4.90;99.90;;;;;;4981351;28;20486;-77
2023/11/27 10:49:40;;;;;;;53.58;25.50;;;4.90;99.90;;;;;;4985081;28;20019;-76
2023/11/27 10:52:09;;;;;;;49.90;24.05;;;4.90;99.90;;;;;;4984424;28;20030;-76
2023/11/27 10:54:38;;;;;;;45.80;21.80;;;4.90;99.90;;;;;;4981984;28;20034;-71
2023/11/27 10:57:06;;;;;;;42.20;21.38;;;4.90;99.90;;;;;;4985379;28;20050;-77
2023/11/27 10:59:33;;;;;;;48.38;22.52;;;4.90;99.90;;;;;;4982194;28;20026;-78
2023/11/27 11:02:01;;;;;;;;;;;4.90;99.90;;;;;;4982980;28;20031;-75
2023/11/27 11:04:52;;;;;;;43.47;21.77;;;4.90;99.90;;;;;;4981850;28;19914;-76
2023/11/27 11:07:41;;;;;;;49.30;22.00;;;5.00;99.90;;;;;;4983714;28;20094;-76
2023/11/27 11:10:11;;;;;;;45.90;21.08;;;5.10;99.90;;;;;;4982875;28;20544;-75
2023/11/27 11:12:43;;;;;;;38.95;22.05;;;5.20;99.90;;;;;;4983511;28;20023;-75
2023/11/27 11:15:13;;;;;;;45.35;21.00;;;5.40;99.90;;;;;;4983447;28;20418;-74
2023/11/27 11:17:54;;;;;;;38.33;19.45;;;5.50;99.90;;;;;;4985220;28;20045;-76
2023/11/27 11:20:30;;;;;;;28.90;14.40;;;5.60;99.90;;;;;;4986511;28;20030;-76
2023/11/27 11:23:15;;;;;;;30.02;14.63;;;5.60;99.90;;;;;;4985563;28;20081;-72
2023/11/27 11:26:05;;;;;;;37.13;17.20;;;5.70;99.90;;;;;;4984404;28;20104;-71
2023/11/27 11:29:20;;;;;;;30.40;13.52;;;5.80;99.90;;;;;;4981077;28;20458;-75
2023/11/27 11:31:57;;;;;;;26.73;13.80;;;5.80;99.90;;;;;;4992092;28;20042;-76
2023/11/27 11:34:24;;;;;;;27.48;12.85;;;5.80;99.90;;;;;;4986509;28;20038;-69
2023/11/27 11:37:00;;;;;;;25.67;13.75;;;5.80;99.90;;;;;;4984571;28;20085;-75
2023/11/27 11:39:26;;;;;;;26.23;13.23;;;5.80;99.90;;;;;;4978752;28;20491;-71
2023/11/27 11:42:04;;;;;;;23.63;12.93;;;5.80;99.90;;;;;;4983875;28;20066;-76
2023/11/27 11:44:35;;;;;;;24.25;12.95;;;5.80;99.90;;;;;;4986715;28;20092;-73
2023/11/27 11:47:26;;;;;;;25.90;12.93;;;5.90;99.90;;;;;;4983164;28;20043;-80
2023/11/27 11:50:30;;;;;;;21.98;12.88;;;6.00;99.90;;;;;;4986403;28;20499;-80
2023/11/27 11:52:58;;;;;;;25.30;12.95;;;6.00;99.90;;;;;;4984701;28;20018;-77
2023/11/27 11:55:25;;;;;;;26.02;13.00;;;5.90;99.90;;;;;;4986731;28;20095;-79
2023/11/27 11:57:56;;;;;;;23.95;12.52;;;5.90;99.90;;;;;;4984092;28;20045;-80
2023/11/27 12:00:22;;;;;;;23.42;11.55;;;5.90;99.90;;;;;;4985524;28;20064;-81
2023/11/27 12:02:51;;;;;;;;;;;6.00;99.90;;;;;;4986169;28;20515;-81
2023/11/27 12:05:17;;;;;;;30.42;13.18;;;6.10;99.90;;;;;;4986058;28;19920;-76
2023/11/27 12:07:45;;;;;;;31.20;12.90;;;6.20;99.90;;;;;;4978492;28;20031;-80
2023/11/27 12:10:16;;;;;;;19.42;10.35;;;6.30;99.90;;;;;;4985301;28;20411;-79
2023/11/27 12:12:51;;;;;;;23.42;11.75;;;6.20;99.90;;;;;;4986726;28;20031;-80
2023/11/27 12:15:17;;;;;;;20.27;10.80;;;6.20;99.90;;;;;;4986193;28;20022;-76
2023/11/27 12:17:44;;;;;;;19.52;9.93;;;6.20;99.90;;;;;;4982304;28;20042;-73
2023/11/27 12:20:11;;;;;;;19.45;9.68;;;6.10;99.90;;;;;;4985383;28;20042;-73
2023/11/27 12:22:41;;;;;;;18.63;9.75;;;6.10;99.90;;;;;;4986384;28;20498;-76
2023/11/27 12:25:07;;;;;;;21.80;10.15;;;6.10;99.90;;;;;;4984030;28;20030;-77
2023/11/27 12:27:35;;;;;;;15.82;9.75;;;6.10;99.90;;;;;;4983339;28;20041;-72
2023/11/27 12:30:00;;;;;;;22.65;10.55;;;6.20;99.90;;;;;;4986274;28;20050;-77
2023/11/27 12:32:27;;;;;;;23.15;10.25;;;6.10;99.90;;;;;;4982264;28;20031;-75
2023/11/27 12:34:52;;;;;;;21.15;11.55;;;6.20;99.90;;;;;;4989382;28;20439;-75
2023/11/27 12:37:19;;;;;;;22.53;10.93;;;6.20;99.90;;;;;;4981520;28;20042;-75
2023/11/27 12:39:52;;;;;;;25.00;10.68;;;6.20;99.90;;;;;;4982050;28;20526;-75
2023/11/27 12:42:19;;;;;;;21.48;10.80;;;6.20;99.90;;;;;;4983992;28;20486;-79